Time;durP1;ratioP1;P1;durP2;ratioP2;P2;SDS_P1;SDS_P2;PMS_P1;PMS_P2;Temp;Humidity;BMP_temperature;BMP_pressure;BME280_temperature;BME280_humidity;BME280_pressure;Samples;Min_cycle;Max_cycle;Signal;HPM_P1;HPM_P2
2022/11/09 00:01:41;;;;;;;;;;;9.00;99.90;;;;;;5025609;28;19988;-68
2022/11/09 00:04:08;;;;;;;;;;;8.90;99.90;;;;;;5052274;28;20000;-68
2022/11/09 00:06:36;;;;;;;;;;;8.90;99.90;;;;;;5060728;28;19988;-68
2022/11/09 00:09:04;;;;;;;;;;;8.80;99.90;;;;;;5063920;28;19984;-68
2022/11/09 00:11:30;;;;;;;;;;;8.80;99.90;;;;;;5063910;28;19921;-67
2022/11/09 00:13:57;;;;;;;;;;;8.80;99.90;;;;;;5063958;28;19921;-69
2022/11/09 00:16:24;;;;;;;;;;;8.70;99.90;;;;;;5063146;28;19987;-68
2022/11/09 00:18:52;;;;;;;;;;;8.60;99.90;;;;;;5052346;28;19953;-68
2022/11/09 00:21:19;;;;;;;;;;;8.70;99.90;;;;;;5048725;28;20231;-68
2022/11/09 00:23:47;;;;;;;;;;;8.60;99.90;;;;;;5043616;28;19967;-69
2022/11/09 00:26:15;;;;;;;;;;;8.60;99.90;;;;;;5043058;28;19988;-69
2022/11/09 00:28:41;;;;;;;;;;;8.60;99.90;;;;;;5043926;28;19952;-68
2022/11/09 00:31:10;;;;;;;;;;;8.60;99.90;;;;;;5043887;28;19991;-68
2022/11/09 00:33:36;;;;;;;;;;;8.50;99.90;;;;;;5051931;28;19991;-68
2022/11/09 00:36:06;;;;;;;;;;;8.50;99.90;;;;;;5056022;28;20283;-68
2022/11/09 00:38:32;;;;;;;;;;;8.50;99.90;;;;;;5057104;28;20085;-68
2022/11/09 00:41:01;;;;;;;;;;;8.50;99.90;;;;;;5043727;28;19921;-68
2022/11/09 00:43:28;;;;;;;;;;;8.40;99.90;;;;;;5043735;28;19955;-68
2022/11/09 00:45:54;;;;;;;;;;;8.40;99.90;;;;;;5042726;28;19948;-69
2022/11/09 00:48:21;;;;;;;;;;;8.40;99.90;;;;;;5043139;28;19996;-68
2022/11/09 00:50:49;;;;;;;;;;;8.30;99.90;;;;;;5051904;28;19988;-68
2022/11/09 00:53:15;;;;;;;;;;;8.30;99.90;;;;;;5043503;28;19971;-69
2022/11/09 00:55:42;;;;;;;;;;;8.30;99.90;;;;;;5040262;28;20020;-68
2022/11/09 00:58:10;;;;;;;;;;;8.30;99.90;;;;;;5050938;28;19988;-70
2022/11/09 01:00:37;;;;;;;;;;;8.30;99.90;;;;;;5063639;28;19952;-69
2022/11/09 01:03:03;;;;;;;;;;;8.30;99.90;;;;;;5055443;28;19956;-68
2022/11/09 01:05:30;;;;;;;;;;;8.30;99.90;;;;;;5056199;28;20306;-68
2022/11/09 01:07:56;;;;;;;;;;;8.30;99.90;;;;;;5067451;28;19992;-68
2022/11/09 01:10:23;;;;;;;;;;;8.20;99.90;;;;;;5067356;28;19987;-68
2022/11/09 01:12:50;;;;;;;;;;;8.20;99.90;;;;;;5067387;28;19971;-68
2022/11/09 01:15:18;;;;;;;;;;;8.30;99.90;;;;;;5066326;28;19988;-68
2022/11/09 01:17:44;;;;;;;;;;;8.30;99.90;;;;;;5064771;28;20003;-67
2022/11/09 01:20:11;;;;;;;;;;;8.30;99.90;;;;;;5055295;28;19987;-70
2022/11/09 01:22:38;;;;;;;;;;;8.30;99.90;;;;;;5046881;28;20000;-68
2022/11/09 01:25:05;;;;;;;;;;;8.30;99.90;;;;;;5045973;28;19988;-68
2022/11/09 01:27:32;;;;;;;;;;;8.30;99.90;;;;;;5046812;28;20224;-68
2022/11/09 01:29:58;;;;;;;;;;;8.30;99.90;;;;;;5047009;28;19984;-68
2022/11/09 01:32:26;;;;;;;;;;;8.40;99.90;;;;;;5046991;28;20133;-68
2022/11/09 01:34:53;;;;;;;;;;;8.40;99.90;;;;;;5057531;28;20271;-68
2022/11/09 01:37:19;;;;;;;;;;;8.30;99.90;;;;;;5066754;28;19984;-69
2022/11/09 01:39:46;;;;;;;;;;;8.30;99.90;;;;;;5066686;28;20163;-68
2022/11/09 01:42:13;;;;;;;;;;;8.40;99.90;;;;;;5066773;28;19987;-68
2022/11/09 01:44:39;;;;;;;;;;;8.40;99.90;;;;;;5066163;28;19988;-68
2022/11/09 01:47:07;;;;;;;;;;;8.40;99.90;;;;;;5060963;28;19988;-68
2022/11/09 01:49:39;;;;;;;;;;;8.40;99.90;;;;;;5055534;28;19960;-70
2022/11/09 01:52:07;;;;;;;;;;;8.40;99.90;;;;;;5066614;28;19921;-69
2022/11/09 01:54:37;;;;;;;;;;;8.40;99.90;;;;;;5065688;28;20240;-70
2022/11/09 01:57:15;;;;;;;;;;;8.40;99.90;;;;;;5063419;28;19992;-68
2022/11/09 01:59:45;;;;;;;;;;;8.40;99.90;;;;;;5066421;28;19995;-68
2022/11/09 02:02:12;;;;;;;;;;;8.30;99.90;;;;;;5060488;28;19948;-68
2022/11/09 02:04:43;;;;;;;;;;;8.30;99.90;;;;;;5055340;28;19952;-67
2022/11/09 02:07:10;;;;;;;;;;;8.30;99.90;;;;;;5065929;28;19988;-68
2022/11/09 02:09:38;;;;;;;;;;;8.30;99.90;;;;;;5066196;28;19925;-69
2022/11/09 02:12:06;;;;;;;;;;;8.30;99.90;;;;;;5065831;28;19963;-68
2022/11/09 02:14:34;;;;;;;;;;;8.20;99.90;;;;;;5065637;28;19992;-69
2022/11/09 02:17:01;;;;;;;;;;;8.20;99.90;;;;;;5065305;28;19927;-69
2022/11/09 02:19:27;;;;;;;;;;;8.20;99.90;;;;;;5057839;28;20252;-68
2022/11/09 02:21:55;;;;;;;;;;;8.20;99.90;;;;;;5034966;28;19984;-68
2022/11/09 02:24:22;;;;;;;;;;;8.20;99.90;;;;;;5042315;28;19996;-68
2022/11/09 02:26:49;;;;;;;;;;;8.20;99.90;;;;;;5025124;28;20361;-68
2022/11/09 02:29:19;;;;;;;;;;;8.20;99.90;;;;;;5026090;28;19988;-68
2022/11/09 02:31:48;;;;;;;;;;;8.20;99.90;;;;;;5028761;28;19989;-69
2022/11/09 02:34:16;;;;;;;;;;;8.30;99.90;;;;;;5058905;28;20267;-68
2022/11/09 02:36:43;;;;;;;;;;;8.20;99.90;;;;;;5044918;28;19921;-68
2022/11/09 02:39:12;;;;;;;;;;;8.30;99.90;;;;;;5045369;28;19922;-68
2022/11/09 02:41:41;;;;;;;;;;;8.20;99.90;;;;;;5045585;28;19959;-68
2022/11/09 02:44:08;;;;;;;;;;;8.30;99.90;;;;;;5045313;28;19989;-68
2022/11/09 02:46:36;;;;;;;;;;;8.30;99.90;;;;;;5044176;28;19959;-68
2022/11/09 02:49:03;;;;;;;;;;;8.30;99.90;;;;;;5064793;23;20003;-70
2022/11/09 02:51:30;;;;;;;;;;;8.30;99.90;;;;;;5046776;28;19960;-70
2022/11/09 02:53:57;;;;;;;;;;;8.30;99.90;;;;;;5036799;28;19984;-69
2022/11/09 02:56:25;;;;;;;;;;;8.30;99.90;;;;;;5044427;28;19956;-70
2022/11/09 02:58:51;;;;;;;;;;;8.30;99.90;;;;;;5045057;28;19956;-69
2022/11/09 03:01:18;;;;;;;;;;;8.30;99.90;;;;;;5043297;28;20167;-70
2022/11/09 03:03:46;;;;;;;;;;;8.30;99.90;;;;;;5057189;28;19989;-69
2022/11/09 03:06:12;;;;;;;;;;;8.30;99.90;;;;;;5058137;28;19996;-70
2022/11/09 03:08:39;;;;;;;;;;;8.40;99.90;;;;;;5064739;28;19987;-70
2022/11/09 03:11:06;;;;;;;;;;;8.30;99.90;;;;;;5025241;28;20004;-69
2022/11/09 03:13:34;;;;;;;;;;;8.30;99.90;;;;;;5025287;28;19921;-70
2022/11/09 03:16:03;;;;;;;;;;;8.30;99.90;;;;;;5024341;28;20000;-70
2022/11/09 03:18:30;;;;;;;;;;;8.30;99.90;;;;;;5048048;28;19992;-69
2022/11/09 03:21:00;;;;;;;;;;;8.40;99.90;;;;;;5052924;28;19980;-70
2022/11/09 03:23:27;;;;;;;;;;;8.40;99.90;;;;;;5044724;28;20182;-69
2022/11/09 03:25:53;;;;;;;;;;;8.40;99.90;;;;;;5043853;28;19995;-70
2022/11/09 03:28:20;;;;;;;;;;;8.50;99.90;;;;;;5043874;28;19997;-69
2022/11/09 03:30:48;;;;;;;;;;;8.50;99.90;;;;;;5044630;28;19952;-70
2022/11/09 03:33:15;;;;;;;;;;;8.40;99.90;;;;;;5049861;28;19983;-70
2022/11/09 03:35:42;;;;;;;;;;;8.40;99.90;;;;;;5055067;28;20227;-70
2022/11/09 03:38:09;;;;;;;;;;;8.50;99.90;;;;;;5064257;28;20001;-70
2022/11/09 03:40:36;;;;;;;;;;;8.50;99.90;;;;;;5064399;28;19952;-69
2022/11/09 03:43:02;;;;;;;;;;;8.60;99.90;;;;;;5064019;28;20254;-69
2022/11/09 03:45:29;;;;;;;;;;;8.60;99.90;;;;;;5063369;28;20000;-69
2022/11/09 03:47:59;;;;;;;;;;;8.60;99.90;;;;;;5056293;28;19956;-69
2022/11/09 03:50:27;;;;;;;;;;;8.60;99.90;;;;;;5052845;28;19921;-70
2022/11/09 03:52:54;;;;;;;;;;;8.60;99.90;;;;;;5063786;28;19987;-70
2022/11/09 03:55:21;;;;;;;;;;;8.60;99.90;;;;;;5063310;28;19921;-69
2022/11/09 03:57:47;;;;;;;;;;;8.50;99.90;;;;;;5063724;28;19952;-70
2022/11/09 04:00:17;;;;;;;;;;;8.50;99.90;;;;;;5059968;28;19993;-70
2022/11/09 04:02:44;;;;;;;;;;;8.60;99.90;;;;;;5056210;28;19993;-70
2022/11/09 04:05:12;;;;;;;;;;;8.60;99.90;;;;;;5054849;28;20000;-70
2022/11/09 04:07:39;;;;;;;;;;;8.60;99.90;;;;;;5063850;28;19959;-69
2022/11/09 04:10:06;;;;;;;;;;;8.60;99.90;;;;;;5063852;28;20175;-70
2022/11/09 04:12:32;;;;;;;;;;;8.60;99.90;;;;;;5063862;28;19927;-69
2022/11/09 04:14:59;;;;;;;;;;;8.60;99.90;;;;;;5062818;28;19956;-70
2022/11/09 04:17:26;;;;;;;;;;;8.60;99.90;;;;;;5056878;28;19993;-69
2022/11/09 04:19:52;;;;;;;;;;;8.60;99.90;;;;;;5054910;28;20161;-69
2022/11/09 04:22:20;;;;;;;;;;;8.60;99.90;;;;;;5063743;28;19956;-69
2022/11/09 04:24:47;;;;;;;;;;;8.70;99.90;;;;;;5062555;28;19958;-71
2022/11/09 04:27:14;;;;;;;;;;;8.70;99.90;;;;;;5063274;28;19952;-69
2022/11/09 04:29:40;;;;;;;;;;;8.70;99.90;;;;;;5063931;28;19928;-69
2022/11/09 04:32:07;;;;;;;;;;;8.70;99.90;;;;;;5060080;28;19996;-70
2022/11/09 04:34:34;;;;;;;;;;;8.70;99.90;;;;;;5051681;28;19988;-70
2022/11/09 04:37:00;;;;;;;;;;;8.70;99.90;;;;;;5053308;28;19983;-69
2022/11/09 04:39:28;;;;;;;;;;;8.80;99.90;;;;;;5043550;28;20064;-70
2022/11/09 04:41:55;;;;;;;;;;;8.80;99.90;;;;;;5047779;28;19988;-71
2022/11/09 04:44:21;;;;;;;;;;;8.80;99.90;;;;;;5047736;28;20159;-70
2022/11/09 04:46:48;;;;;;;;;;;8.80;99.90;;;;;;5046697;28;19928;-70
2022/11/09 04:49:15;;;;;;;;;;;8.80;99.90;;;;;;5049794;28;19980;-70
2022/11/09 04:51:41;;;;;;;;;;;8.80;99.90;;;;;;5065121;28;19955;-70
2022/11/09 04:54:08;;;;;;;;;;;8.80;99.90;;;;;;5067463;28;19987;-70
2022/11/09 04:56:36;;;;;;;;;;;8.80;99.90;;;;;;5066756;28;19983;-70
2022/11/09 04:59:03;;;;;;;;;;;8.90;99.90;;;;;;5067276;28;19952;-70
2022/11/09 05:01:29;;;;;;;;;;;8.90;99.90;;;;;;5067397;28;19991;-70
2022/11/09 05:03:56;;;;;;;;;;;8.90;99.90;;;;;;5057092;28;19952;-69
2022/11/09 05:06:31;;;;;;;;;;;8.90;99.90;;;;;;5061539;28;20314;-69
2022/11/09 05:08:58;;;;;;;;;;;8.90;99.90;;;;;;5067216;28;19988;-70
2022/11/09 05:11:25;;;;;;;;;;;8.90;99.90;;;;;;5067133;28;19988;-69
2022/11/09 05:13:53;;;;;;;;;;;9.00;99.90;;;;;;5066807;28;20271;-70
2022/11/09 05:16:20;;;;;;;;;;;9.00;99.90;;;;;;5056090;28;19984;-70
2022/11/09 05:18:46;;;;;;;;;;;9.00;99.90;;;;;;5054870;28;19983;-69
2022/11/09 05:21:13;;;;;;;;;;;9.10;99.90;;;;;;5061168;28;19984;-69
2022/11/09 05:26:24;;;;;;;;;;;9.20;99.90;;;;;;5065866;28;19943;-70
2022/11/09 05:28:51;;;;;;;;;;;9.20;99.90;;;;;;5066342;28;19984;-69
2022/11/09 05:31:19;;;;;;;;;;;9.20;99.90;;;;;;5066479;28;19958;-70
2022/11/09 05:33:48;;;;;;;;;;;9.30;99.90;;;;;;5051398;28;19985;-70
2022/11/09 05:36:14;;;;;;;;;;;9.30;99.90;;;;;;5047462;28;20275;-69
2022/11/09 05:38:41;;;;;;;;;;;9.30;99.90;;;;;;5046281;28;19921;-70
2022/11/09 05:41:08;;;;;;;;;;;9.30;99.90;;;;;;5046414;28;20200;-69
2022/11/09 05:43:34;;;;;;;;;;;9.20;99.90;;;;;;5046063;28;20006;-68
2022/11/09 05:46:01;;;;;;;;;;;9.30;99.90;;;;;;5044481;28;19993;-67
2022/11/09 05:48:29;;;;;;;;;;;9.20;99.90;;;;;;5045251;28;19976;-67
2022/11/09 05:50:57;;;;;;;;;;;9.20;99.90;;;;;;5045362;28;19976;-67
2022/11/09 05:53:23;;;;;;;;;;;9.20;99.90;;;;;;5046094;28;20148;-67
2022/11/09 05:55:50;;;;;;;;;;;9.20;99.90;;;;;;5044308;28;19995;-67
2022/11/09 05:58:17;;;;;;;;;;;9.20;99.90;;;;;;5046037;28;19988;-67
2022/11/09 06:00:44;;;;;;;;;;;9.20;99.90;;;;;;5043423;28;19963;-68
2022/11/09 06:03:11;;;;;;;;;;;9.20;99.90;;;;;;5051140;28;19953;-66
2022/11/09 06:05:40;;;;;;;;;;;9.20;99.90;;;;;;5054827;28;19921;-67
2022/11/09 06:08:08;;;;;;;;;;;9.20;99.90;;;;;;5065773;28;19988;-67
2022/11/09 06:10:35;;;;;;;;;;;9.20;99.90;;;;;;5065516;28;19952;-67
2022/11/09 06:13:02;;;;;;;;;;;9.20;99.90;;;;;;5065753;28;19987;-67
2022/11/09 06:15:28;;;;;;;;;;;9.10;99.90;;;;;;5064985;28;19988;-67
2022/11/09 06:17:55;;;;;;;;;;;9.10;99.90;;;;;;5051929;28;19952;-67
2022/11/09 06:20:22;;;;;;;;;;;9.20;99.90;;;;;;5053711;28;19956;-70
2022/11/09 06:22:54;;;;;;;;;;;9.10;99.90;;;;;;5043362;28;19957;-66
2022/11/09 06:25:21;;;;;;;;;;;9.20;99.90;;;;;;5024627;28;20228;-67
2022/11/09 06:27:49;;;;;;;;;;;9.10;99.90;;;;;;5022929;28;20431;-66
2022/11/09 06:30:16;;;;;;;;;;;9.20;99.90;;;;;;5025738;28;20192;-67
2022/11/09 06:32:43;;;;;;;;;;;9.20;99.90;;;;;;5028819;28;20164;-66
2022/11/09 06:35:10;;;;;;;;;;;9.20;99.90;;;;;;5056403;28;19992;-67
2022/11/09 06:37:36;;;;;;;;;;;9.20;99.90;;;;;;5065032;28;20227;-67
2022/11/09 06:40:05;;;;;;;;;;;9.20;99.90;;;;;;5065159;28;19959;-68
2022/11/09 06:42:37;;;;;;;;;;;9.20;99.90;;;;;;5062376;28;19983;-67
2022/11/09 06:45:04;;;;;;;;;;;9.20;99.90;;;;;;5064619;28;19964;-67
2022/11/09 06:47:31;;;;;;;;;;;9.20;99.90;;;;;;5058113;28;19981;-67
2022/11/09 06:49:58;;;;;;;;;;;9.30;99.90;;;;;;5053964;28;19988;-67
2022/11/09 06:52:31;;;;;;;;;;;9.30;99.90;;;;;;5064209;28;19963;-67
2022/11/09 06:54:57;;;;;;;;;;;9.30;99.90;;;;;;5064338;28;19988;-67
2022/11/09 06:57:25;;;;;;;;;;;9.30;99.90;;;;;;5064898;28;20163;-68
2022/11/09 06:59:52;;;;;;;;;;;9.30;99.90;;;;;;5064875;28;20141;-67
2022/11/09 07:02:19;;;;;;;;;;;9.30;99.90;;;;;;5057022;28;19972;-67
2022/11/09 07:04:45;;;;;;;;;;;9.30;99.90;;;;;;5054309;28;19988;-67
2022/11/09 07:07:12;;;;;;;;;;;9.30;99.90;;;;;;5064045;28;20295;-67
2022/11/09 07:09:39;;;;;;;;;;;9.30;99.90;;;;;;5064691;28;19987;-67
2022/11/09 07:12:05;;;;;;;;;;;9.30;99.90;;;;;;5064763;28;19952;-67
2022/11/09 07:14:33;;;;;;;;;;;9.30;99.90;;;;;;5064178;28;19986;-67
2022/11/09 07:17:00;;;;;;;;;;;9.30;99.90;;;;;;5061911;28;20019;-67
2022/11/09 07:19:28;;;;;;;;;;;9.30;99.90;;;;;;5052550;28;19968;-68
2022/11/09 07:21:54;;;;;;;;;;;9.40;99.90;;;;;;5064165;28;19959;-67
2022/11/09 07:24:21;;;;;;;;;;;9.30;99.90;;;;;;5064436;28;19952;-67
2022/11/09 07:26:48;;;;;;;;;;;9.40;99.90;;;;;;5063560;28;19995;-67
2022/11/09 07:29:14;;;;;;;;;;;9.40;99.90;;;;;;5064324;28;20108;-66
2022/11/09 07:31:42;;;;;;;;;;;9.50;99.90;;;;;;5064010;28;20308;-67
2022/11/09 07:34:09;;;;;;;;;;;9.50;99.90;;;;;;5052391;28;20116;-68
2022/11/09 07:36:36;;;;;;;;;;;9.50;99.90;;;;;;5060694;28;19948;-67
2022/11/09 07:39:03;;;;;;;;;;;9.50;99.90;;;;;;5059037;28;19924;-67
2022/11/09 07:41:30;;;;;;;;;;;9.60;99.90;;;;;;5039448;28;20149;-67
2022/11/09 07:43:57;;;;;;;;;;;9.60;99.90;;;;;;5031962;28;19949;-67
2022/11/09 07:46:23;;;;;;;;;;;9.60;99.90;;;;;;5063224;28;19987;-67
2022/11/09 07:48:51;;;;;;;;;;;9.70;99.90;;;;;;5055046;28;19983;-67
2022/11/09 07:51:18;;;;;;;;;;;9.60;99.90;;;;;;5046428;28;19955;-67
2022/11/09 07:53:45;;;;;;;;;;;9.60;99.90;;;;;;5043980;28;19948;-67
2022/11/09 07:56:11;;;;;;;;;;;9.60;99.90;;;;;;5043130;28;20018;-67
2022/11/09 07:58:38;;;;;;;;;;;9.60;99.90;;;;;;5040469;28;19981;-67
2022/11/09 08:01:07;;;;;;;;;;;9.60;99.90;;;;;;5043630;28;19984;-67
2022/11/09 08:03:33;;;;;;;;;;;9.60;99.90;;;;;;5044648;28;19983;-67
2022/11/09 08:06:01;;;;;;;;;;;9.60;99.90;;;;;;5054893;28;19927;-68
2022/11/09 08:08:28;;;;;;;;;;;9.60;99.90;;;;;;5063501;28;19996;-68
2022/11/09 08:10:56;;;;;;;;;;;9.60;99.90;;;;;;5063222;28;19997;-67
2022/11/09 08:13:23;;;;;;;;;;;9.60;99.90;;;;;;5057320;28;19921;-66
2022/11/09 08:15:49;;;;;;;;;;;9.60;99.90;;;;;;5061864;28;19984;-67
2022/11/09 08:18:17;;;;;;;;;;;9.70;99.90;;;;;;5050005;28;19952;-68
2022/11/09 08:20:44;;;;;;;;;;;9.70;99.90;;;;;;5055081;28;19931;-68
2022/11/09 08:23:13;;;;;;;;;;;9.70;99.90;;;;;;5063573;28;19984;-68
2022/11/09 08:25:40;;;;;;;;;;;9.70;99.90;;;;;;5062593;28;19952;-68
2022/11/09 08:28:06;;;;;;;;;;;9.80;99.90;;;;;;5063405;28;19963;-67
2022/11/09 08:30:34;;;;;;;;;;;9.90;99.90;;;;;;5063358;28;20243;-67
2022/11/09 08:33:02;;;;;;;;;;;9.90;99.90;;;;;;5056684;28;19982;-67
2022/11/09 08:35:29;;;;;;;;;;;9.90;99.90;;;;;;5053866;28;19921;-67
2022/11/09 08:37:55;;;;;;;;;;;9.90;99.90;;;;;;5063285;28;19953;-67
2022/11/09 08:40:25;;;;;;;;;;;9.90;99.90;;;;;;5050292;28;19948;-67
2022/11/09 08:42:52;;;;;;;;;;;10.00;99.90;;;;;;5023492;28;19960;-66
2022/11/09 08:45:18;;;;;;;;;;;10.00;99.90;;;;;;5022772;28;19988;-67
2022/11/09 08:47:45;;;;;;;;;;;10.00;99.90;;;;;;5032911;28;19960;-68
2022/11/09 08:50:13;;;;;;;;;;;10.10;99.90;;;;;;5051846;28;19956;-67
2022/11/09 08:52:40;;;;;;;;;;;10.10;99.90;;;;;;5062987;28;20263;-66
2022/11/09 08:55:07;;;;;;;;;;;10.00;99.90;;;;;;5062585;28;19991;-67
2022/11/09 08:57:35;;;;;;;;;;;10.00;99.90;;;;;;5063020;28;19921;-67
2022/11/09 09:00:02;;;;;;;;;;;10.00;99.90;;;;;;5063124;28;20157;-67
2022/11/09 09:02:29;;;;;;;;;;;10.00;99.90;;;;;;5055718;28;19988;-67
2022/11/09 09:04:56;;;;;;;;;;;9.90;99.90;;;;;;5034492;28;20011;-67
2022/11/09 09:07:23;;;;;;;;;;;9.90;99.90;;;;;;5042877;28;19996;-67
2022/11/09 09:09:50;;;;;;;;;;;9.90;99.90;;;;;;5043042;28;19952;-67
2022/11/09 09:12:16;;;;;;;;;;;9.90;99.90;;;;;;5031797;28;19953;-68
2022/11/09 09:14:44;;;;;;;;;;;9.90;99.90;;;;;;5022414;28;20268;-67
2022/11/09 09:17:11;;;;;;;;;;;9.90;99.90;;;;;;5026099;28;19953;-68
2022/11/09 09:19:37;;;;;;;;;;;10.00;99.90;;;;;;5051836;28;19996;-67
2022/11/09 09:22:04;;;;;;;;;;;10.00;99.90;;;;;;5062652;28;20299;-67
2022/11/09 09:24:31;;;;;;;;;;;10.00;99.90;;;;;;5062375;28;19920;-68
2022/11/09 09:26:57;;;;;;;;;;;10.00;99.90;;;;;;5064953;28;19984;-67
2022/11/09 09:29:24;;;;;;;;;;;10.10;99.90;;;;;;5066233;28;19921;-67
2022/11/09 09:31:52;;;;;;;;;;;10.10;99.90;;;;;;5065333;28;19988;-67
2022/11/09 09:34:19;;;;;;;;;;;10.10;99.90;;;;;;5054605;28;19988;-68
2022/11/09 09:36:45;;;;;;;;;;;10.20;99.90;;;;;;5061748;28;20231;-67
2022/11/09 09:39:12;;;;;;;;;;;10.20;99.90;;;;;;5046382;28;19975;-67
2022/11/09 09:41:40;;;;;;;;;;;10.30;99.90;;;;;;5046015;28;20243;-67
2022/11/09 09:44:12;;;;;;;;;;;10.30;99.90;;;;;;5046297;28;19949;-67
2022/11/09 09:46:42;;;;;;;;;;;10.40;99.90;;;;;;5045521;28;20008;-67
2022/11/09 09:49:12;;;;;;;;;;;10.40;99.90;;;;;;5045266;28;19996;-68
2022/11/09 09:51:41;;;;;;;;;;;10.50;99.90;;;;;;5046017;28;20000;-67
2022/11/09 09:54:14;;;;;;;;;;;10.50;99.90;;;;;;5045858;28;20268;-67
2022/11/09 09:56:43;;;;;;;;;;;10.60;99.90;;;;;;5045361;28;19988;-67
2022/11/09 09:59:14;;;;;;;;;;;10.70;99.90;;;;;;5044492;28;19996;-67
2022/11/09 10:01:42;;;;;;;;;;;10.70;99.90;;;;;;5025042;28;19996;-67
2022/11/09 10:04:14;;;;;;;;;;;10.80;99.90;;;;;;5046310;28;20204;-67
2022/11/09 10:06:43;;;;;;;;;;;10.90;99.90;;;;;;5052472;28;19996;-68
2022/11/09 10:09:16;;;;;;;;;;;11.00;99.90;;;;;;5045809;28;19988;-67
2022/11/09 10:11:47;;;;;;;;;;;11.10;99.90;;;;;;5045847;28;19952;-67
2022/11/09 10:14:28;;;;;;;;;;;11.20;99.90;;;;;;5044613;28;19945;-67
2022/11/09 10:16:59;;;;;;;;;;;11.30;99.90;;;;;;5044972;28;19952;-67
2022/11/09 10:19:35;;;;;;;;;;;11.40;99.90;;;;;;5053640;28;19992;-67
2022/11/09 10:22:07;;;;;;;;;;;11.50;99.90;;;;;;5025512;28;20376;-69
2022/11/09 10:24:39;;;;;;;;;;;11.60;99.90;;;;;;5025308;28;19992;-67
2022/11/09 10:27:10;;;;;;;;;;;11.60;99.90;;;;;;5025478;28;19996;-67
2022/11/09 10:29:39;;;;;;;;;;;11.70;99.90;;;;;;5025520;28;20029;-67
2022/11/09 10:32:10;;;;;;;;;;;11.60;99.90;;;;;;5028063;28;19992;-67
2022/11/09 10:34:40;;;;;;;;;;;11.70;99.90;;;;;;5053744;28;19988;-68
2022/11/09 10:37:10;;;;;;;;;;;11.70;99.90;;;;;;5065377;28;19987;-67
2022/11/09 10:39:40;;;;;;;;;;;11.70;99.90;;;;;;5065248;28;19983;-67
2022/11/09 10:42:09;;;;;;;;;;;11.80;99.90;;;;;;5064964;28;19920;-67
2022/11/09 10:44:36;;;;;;;;;;;11.80;99.90;;;;;;5064352;28;20290;-68
2022/11/09 10:47:04;;;;;;;;;;;11.80;99.90;;;;;;5055912;28;19996;-67
2022/11/09 10:49:32;;;;;;;;;;;11.80;99.90;;;;;;5052723;28;19921;-67
2022/11/09 10:52:01;;;;;;;;;;;11.80;99.90;;;;;;5065121;28;20208;-67
2022/11/09 10:54:30;;;;;;;;;;;11.80;99.90;;;;;;5064975;28;19959;-67
2022/11/09 10:57:02;;;;;;;;;;;11.80;99.90;;;;;;5064737;28;20116;-68
2022/11/09 10:59:40;;;;;;;;;;;11.80;99.90;;;;;;5064649;28;19990;-67
2022/11/09 11:02:26;;;;;;;;;;;11.90;99.90;;;;;;5061514;28;19960;-67
2022/11/09 11:05:13;;;;;;;;;;;11.90;99.90;;;;;;5044551;28;19984;-67
2022/11/09 11:07:41;;;;;;;;;;;12.00;99.90;;;;;;5044628;28;19937;-68
2022/11/09 11:10:11;;;;;;;;;;;12.10;99.90;;;;;;5044617;28;19984;-67
2022/11/09 11:12:37;;;;;;;;;;;12.00;99.90;;;;;;5044312;28;20294;-67
2022/11/09 11:15:14;;;;;;;;;;;12.20;99.90;;;;;;5043914;28;20280;-67
2022/11/09 11:17:41;;;;;;;;;;;12.20;99.90;;;;;;5045116;28;20284;-68
2022/11/09 11:20:25;;;;;;;;;;;12.30;99.90;;;;;;5055300;28;20097;-67
2022/11/09 11:23:05;;;;;;;;;;;12.40;99.90;;;;;;5063271;28;20004;-67
2022/11/09 11:25:32;;;;;;;;;;;12.40;99.90;;;;;;5063025;28;19992;-67
2022/11/09 11:28:02;;;;;;;;;;;12.50;99.90;;;;;;5063278;28;19927;-68
2022/11/09 11:30:33;;;;;;;;;;;12.50;99.90;;;;;;5064374;28;19971;-67
2022/11/09 11:33:01;;;;;;;;;;;12.60;99.90;;;;;;5057600;28;19925;-68
2022/11/09 11:35:31;;;;;;;;;;;12.60;99.90;;;;;;5055323;28;19921;-67
2022/11/09 11:38:06;;;;;;;;;;;12.70;99.90;;;;;;5043486;28;20394;-67
2022/11/09 11:40:37;;;;;;;;;;;12.90;99.90;;;;;;5043909;28;20261;-67
2022/11/09 11:43:14;;;;;;;;;;;13.00;99.90;;;;;;5042624;28;19988;-67
2022/11/09 11:45:41;;;;;;;;;;;13.10;99.90;;;;;;5040843;28;20009;-67
2022/11/09 11:48:20;;;;;;;;;;;13.20;99.90;;;;;;5047813;28;19991;-67
2022/11/09 11:50:51;;;;;;;;;;;13.30;99.90;;;;;;5053307;28;19928;-67
2022/11/09 11:53:25;;;;;;;;;;;13.40;99.90;;;;;;5043807;28;19980;-67
2022/11/09 11:56:01;;;;;;;;;;;13.50;99.90;;;;;;5042860;28;19988;-67
2022/11/09 11:58:35;;;;;;;;;;;13.60;99.90;;;;;;5043730;28;19989;-67
2022/11/09 12:01:06;;;;;;;;;;;13.70;99.90;;;;;;5033355;28;20016;-67
2022/11/09 12:03:54;;;;;;;;;;;13.80;99.90;;;;;;5040535;28;19984;-69
2022/11/09 12:06:30;;;;;;;;;;;14.00;99.90;;;;;;5052721;28;19948;-67
2022/11/09 12:09:11;;;;;;;;;;;14.20;99.90;;;;;;5063488;28;19969;-68
2022/11/09 12:11:43;;;;;;;;;;;14.20;99.90;;;;;;5063548;28;19988;-67
2022/11/09 12:14:16;;;;;;;;;;;14.20;99.90;;;;;;5063673;28;19959;-68
2022/11/09 12:16:45;;;;;;;;;;;14.20;99.90;;;;;;5062895;28;20168;-67
2022/11/09 12:19:20;;;;;;;;;;;14.10;99.90;;;;;;5050828;28;19957;-67
2022/11/09 12:21:50;;;;;;;;;;;14.10;99.90;;;;;;5061874;28;19988;-67
2022/11/09 12:24:23;;;;;;;;;;;14.00;99.90;;;;;;5063721;28;19987;-67
2022/11/09 12:26:56;;;;;;;;;;;14.10;99.90;;;;;;5062643;28;19987;-68
2022/11/09 12:29:24;;;;;;;;;;;14.10;99.90;;;;;;5063316;28;20176;-67
2022/11/09 12:32:03;;;;;;;;;;;14.00;99.90;;;;;;5062368;28;19988;-68
2022/11/09 12:34:33;;;;;;;;;;;14.10;99.90;;;;;;5051183;28;19987;-67
2022/11/09 12:37:02;;;;;;;;;;;14.10;99.90;;;;;;5023218;28;20243;-67
2022/11/09 12:39:32;;;;;;;;;;;14.00;99.90;;;;;;5023150;28;19922;-68
2022/11/09 12:42:01;;;;;;;;;;;14.00;99.90;;;;;;5023600;28;20261;-69
2022/11/09 12:44:31;;;;;;;;;;;14.00;99.90;;;;;;5028660;28;20268;-68
2022/11/09 12:47:00;;;;;;;;;;;14.00;99.90;;;;;;5023131;28;19949;-70
2022/11/09 12:49:33;;;;;;;;;;;14.00;99.90;;;;;;5046746;28;19988;-67
2022/11/09 12:52:00;;;;;;;;;;;14.00;99.90;;;;;;5023382;28;20165;-69
2022/11/09 12:54:27;;;;;;;;;;;14.00;99.90;;;;;;5033335;28;19952;-69
2022/11/09 12:56:56;;;;;;;;;;;14.00;99.90;;;;;;5033927;28;20276;-68
2022/11/09 12:59:34;;;;;;;;;;;14.00;99.90;;;;;;5042218;28;19988;-68
2022/11/09 13:02:01;;;;;;;;;;;14.00;99.90;;;;;;5044877;28;19921;-68
2022/11/09 13:04:28;;;;;;;;;;;14.00;99.90;;;;;;5049551;28;19996;-69
2022/11/09 13:07:09;;;;;;;;;;;14.00;99.90;;;;;;5060205;28;19992;-67
2022/11/09 13:09:36;;;;;;;;;;;13.90;99.90;;;;;;5013694;28;19952;-69
2022/11/09 13:12:17;;;;;;;;;;;13.90;99.90;;;;;;5046161;28;19953;-68
2022/11/09 13:14:44;;;;;;;;;;;14.00;99.90;;;;;;5041217;28;19993;-68
2022/11/09 13:17:44;;;;;;;;;;;13.90;99.90;;;;;;5046619;28;19940;-70
2022/11/09 13:20:30;;;;;;;;;;;13.90;99.90;;;;;;5051196;28;19943;-67
2022/11/09 13:22:59;;;;;;;;;;;13.90;99.90;;;;;;5066520;28;19952;-68
2022/11/09 13:25:47;;;;;;;;;;;13.90;99.90;;;;;;5051296;28;19921;-68
2022/11/09 13:28:28;;;;;;;;;;;14.00;99.90;;;;;;5046041;28;19925;-67
2022/11/09 13:30:59;;;;;;;;;;;13.90;99.90;;;;;;5045696;28;20281;-68
2022/11/09 13:33:25;;;;;;;;;;;13.90;99.90;;;;;;5044761;28;19921;-69
2022/11/09 13:35:59;;;;;;;;;;;13.90;99.90;;;;;;5052115;28;19959;-68
2022/11/09 13:38:26;;;;;;;;;;;13.90;99.90;;;;;;5045764;28;19956;-67
2022/11/09 13:40:54;;;;;;;;;;;13.90;99.90;;;;;;5046559;28;19929;-68
2022/11/09 13:43:25;;;;;;;;;;;13.90;99.90;;;;;;5044452;28;20004;-67
2022/11/09 13:45:53;;;;;;;;;;;13.80;99.90;;;;;;5044290;28;19955;-67
2022/11/09 13:48:32;;;;;;;;;;;13.80;99.90;;;;;;5050950;28;19952;-68
2022/11/09 13:50:59;;;;;;;;;;;13.80;99.90;;;;;;5057524;28;19948;-67
2022/11/09 13:53:31;;;;;;;;;;;13.70;99.90;;;;;;5056541;28;19956;-69
2022/11/09 13:55:57;;;;;;;;;;;13.70;99.90;;;;;;5044764;28;20246;-69
2022/11/09 13:58:27;;;;;;;;;;;13.70;99.90;;;;;;5045444;28;19987;-68
2022/11/09 14:00:53;;;;;;;;;;;13.70;99.90;;;;;;5046094;28;19984;-68
2022/11/09 14:03:21;;;;;;;;;;;13.70;99.90;;;;;;5045527;28;20186;-69
2022/11/09 14:05:51;;;;;;;;;;;13.70;99.90;;;;;;5049302;28;20207;-69
2022/11/09 14:08:20;;;;;;;;;;;13.70;99.90;;;;;;5045466;28;19984;-69
2022/11/09 14:11:04;;;;;;;;;;;13.60;99.90;;;;;;5045819;28;19984;-68
2022/11/09 14:14:03;;;;;;;;;;;13.60;99.90;;;;;;5045305;28;20003;-69
2022/11/09 14:16:36;;;;;;;;;;;13.70;99.90;;;;;;4983823;28;19933;-66
2022/11/09 14:19:06;;;;;;;;;;;13.60;99.90;;;;;;4988568;28;19956;-69
2022/11/09 14:21:38;;;;;;;;;;;13.60;99.90;;;;;;5031571;28;19921;-68
2022/11/09 14:24:13;;;;;;;;;;;13.60;99.90;;;;;;5050175;28;19928;-69
2022/11/09 14:26:40;;;;;;;;;;;13.60;99.90;;;;;;5044723;28;19953;-69
2022/11/09 14:29:20;;;;;;;;;;;13.50;99.90;;;;;;5044719;28;20156;-69
2022/11/09 14:31:46;;;;;;;;;;;13.60;99.90;;;;;;5033438;28;19928;-69
2022/11/09 14:34:14;;;;;;;;;;;13.50;99.90;;;;;;5041304;28;19980;-68
2022/11/09 14:36:42;;;;;;;;;;;13.60;99.90;;;;;;5030225;28;20094;-69
2022/11/09 14:39:18;;;;;;;;;;;13.60;99.90;;;;;;5029837;28;19932;-69